sensor_id;sensor_type;location;lat;lon;timestamp;P1;durP1;ratioP1;P2;durP2;ratioP2
69730;SDS011;56996;48.138;11.538;2023-02-01T00:00:56;6.40;;;1.70;;
69730;SDS011;56996;48.138;11.538;2023-02-01T00:03:22;7.70;;;2.30;;
69730;SDS011;56996;48.138;11.538;2023-02-01T00:05:59;6.50;;;1.70;;
69730;SDS011;56996;48.138;11.538;2023-02-01T00:08:26;7.60;;;1.90;;
69730;SDS011;56996;48.138;11.538;2023-02-01T00:11:01;8.00;;;1.90;;
69730;SDS011;56996;48.138;11.538;2023-02-01T00:13:33;6.50;;;2.00;;
69730;SDS011;56996;48.138;11.538;2023-02-01T00:16:15;6.50;;;1.90;;
69730;SDS011;56996;48.138;11.538;2023-02-01T00:18:45;5.30;;;1.50;;
69730;SDS011;56996;48.138;11.538;2023-02-01T00:21:14;6.00;;;1.90;;
69730;SDS011;56996;48.138;11.538;2023-02-01T00:23:43;6.30;;;1.60;;
69730;SDS011;56996;48.138;11.538;2023-02-01T00:26:48;5.70;;;1.70;;
69730;SDS011;56996;48.138;11.538;2023-02-01T00:29:18;4.90;;;1.20;;
69730;SDS011;56996;48.138;11.538;2023-02-01T00:32:10;5.70;;;1.70;;
69730;SDS011;56996;48.138;11.538;2023-02-01T00:34:37;5.60;;;1.50;;
69730;SDS011;56996;48.138;11.538;2023-02-01T00:37:04;6.60;;;1.70;;
69730;SDS011;56996;48.138;11.538;2023-02-01T00:39:31;6.20;;;1.60;;
69730;SDS011;56996;48.138;11.538;2023-02-01T00:42:00;6.40;;;1.90;;
69730;SDS011;56996;48.138;11.538;2023-02-01T00:44:28;6.80;;;1.90;;
69730;SDS011;56996;48.138;11.538;2023-02-01T00:47:00;6.20;;;2.00;;
69730;SDS011;56996;48.138;11.538;2023-02-01T00:49:27;7.80;;;1.90;;
69730;SDS011;56996;48.138;11.538;2023-02-01T00:51:54;5.80;;;1.60;;
69730;SDS011;56996;48.138;11.538;2023-02-01T00:54:21;6.20;;;1.90;;
69730;SDS011;56996;48.138;11.538;2023-02-01T00:56:48;6.70;;;2.20;;
69730;SDS011;56996;48.138;11.538;2023-02-01T00:59:14;7.10;;;2.30;;
69730;SDS011;56996;48.138;11.538;2023-02-01T01:01:41;6.60;;;2.20;;
69730;SDS011;56996;48.138;11.538;2023-02-01T01:04:08;7.10;;;2.20;;
69730;SDS011;56996;48.138;11.538;2023-02-01T01:06:35;6.90;;;2.10;;
69730;SDS011;56996;48.138;11.538;2023-02-01T01:09:05;7.00;;;2.20;;
69730;SDS011;56996;48.138;11.538;2023-02-01T01:11:36;7.10;;;2.30;;
69730;SDS011;56996;48.138;11.538;2023-02-01T01:14:06;6.60;;;1.60;;
69730;SDS011;56996;48.138;11.538;2023-02-01T01:16:35;8.60;;;2.30;;
69730;SDS011;56996;48.138;11.538;2023-02-01T01:19:02;6.20;;;2.10;;
69730;SDS011;56996;48.138;11.538;2023-02-01T01:21:30;8.10;;;2.60;;
69730;SDS011;56996;48.138;11.538;2023-02-01T01:23:57;7.50;;;2.50;;
69730;SDS011;56996;48.138;11.538;2023-02-01T01:26:27;7.00;;;2.50;;
69730;SDS011;56996;48.138;11.538;2023-02-01T01:28:56;7.40;;;2.50;;
69730;SDS011;56996;48.138;11.538;2023-02-01T01:31:24;7.30;;;2.20;;
69730;SDS011;56996;48.138;11.538;2023-02-01T01:33:53;7.40;;;2.30;;
69730;SDS011;56996;48.138;11.538;2023-02-01T01:36:22;8.30;;;2.50;;
69730;SDS011;56996;48.138;11.538;2023-02-01T01:38:49;8.10;;;2.60;;
69730;SDS011;56996;48.138;11.538;2023-02-01T01:41:26;7.70;;;2.70;;
69730;SDS011;56996;48.138;11.538;2023-02-01T01:44:04;7.60;;;2.50;;
69730;SDS011;56996;48.138;11.538;2023-02-01T01:46:32;7.40;;;2.60;;
69730;SDS011;56996;48.138;11.538;2023-02-01T01:49:20;8.20;;;2.80;;
69730;SDS011;56996;48.138;11.538;2023-02-01T01:51:55;8.00;;;2.60;;
69730;SDS011;56996;48.138;11.538;2023-02-01T01:54:48;7.80;;;2.40;;
69730;SDS011;56996;48.138;11.538;2023-02-01T01:57:20;8.50;;;2.80;;
69730;SDS011;56996;48.138;11.538;2023-02-01T01:59:56;8.10;;;2.90;;
69730;SDS011;56996;48.138;11.538;2023-02-01T02:02:44;9.20;;;3.20;;
69730;SDS011;56996;48.138;11.538;2023-02-01T02:05:14;8.20;;;2.70;;
69730;SDS011;56996;48.138;11.538;2023-02-01T02:07:46;8.30;;;3.30;;
69730;SDS011;56996;48.138;11.538;2023-02-01T02:10:14;5.60;;;1.50;;
69730;SDS011;56996;48.138;11.538;2023-02-01T02:12:44;7.90;;;2.90;;
69730;SDS011;56996;48.138;11.538;2023-02-01T02:15:14;9.10;;;3.50;;
69730;SDS011;56996;48.138;11.538;2023-02-01T02:17:58;10.40;;;3.80;;
69730;SDS011;56996;48.138;11.538;2023-02-01T02:38:23;9.50;;;3.00;;
69730;SDS011;56996;48.138;11.538;2023-02-01T02:41:00;8.90;;;3.20;;
69730;SDS011;56996;48.138;11.538;2023-02-01T02:43:45;8.70;;;3.20;;
69730;SDS011;56996;48.138;11.538;2023-02-01T02:46:39;7.20;;;2.90;;
69730;SDS011;56996;48.138;11.538;2023-02-01T02:49:38;7.60;;;2.70;;
69730;SDS011;56996;48.138;11.538;2023-02-01T02:52:18;7.80;;;2.70;;
69730;SDS011;56996;48.138;11.538;2023-02-01T02:55:07;6.30;;;2.30;;
69730;SDS011;56996;48.138;11.538;2023-02-01T02:57:40;8.30;;;3.00;;
69730;SDS011;56996;48.138;11.538;2023-02-01T03:00:31;8.70;;;2.80;;
69730;SDS011;56996;48.138;11.538;2023-02-01T03:03:18;9.30;;;2.90;;
69730;SDS011;56996;48.138;11.538;2023-02-01T03:06:03;8.20;;;2.90;;
69730;SDS011;56996;48.138;11.538;2023-02-01T03:08:32;8.40;;;3.10;;
69730;SDS011;56996;48.138;11.538;2023-02-01T03:11:04;8.40;;;3.20;;
69730;SDS011;56996;48.138;11.538;2023-02-01T03:13:51;8.40;;;2.80;;
69730;SDS011;56996;48.138;11.538;2023-02-01T03:16:25;8.20;;;3.10;;
69730;SDS011;56996;48.138;11.538;2023-02-01T03:19:00;8.70;;;3.00;;
69730;SDS011;56996;48.138;11.538;2023-02-01T03:24:32;7.10;;;2.50;;
69730;SDS011;56996;48.138;11.538;2023-02-01T03:27:11;8.30;;;3.10;;
69730;SDS011;56996;48.138;11.538;2023-02-01T03:29:45;8.00;;;2.90;;
69730;SDS011;56996;48.138;11.538;2023-02-01T03:32:16;8.20;;;2.50;;
69730;SDS011;56996;48.138;11.538;2023-02-01T03:34:43;8.30;;;3.00;;
69730;SDS011;56996;48.138;11.538;2023-02-01T03:37:14;6.60;;;2.40;;
69730;SDS011;56996;48.138;11.538;2023-02-01T03:39:58;7.80;;;2.70;;
69730;SDS011;56996;48.138;11.538;2023-02-01T03:42:32;8.40;;;2.90;;
69730;SDS011;56996;48.138;11.538;2023-02-01T03:45:07;5.90;;;1.60;;
69730;SDS011;56996;48.138;11.538;2023-02-01T03:47:43;7.30;;;2.60;;
69730;SDS011;56996;48.138;11.538;2023-02-01T03:50:18;6.60;;;2.00;;
69730;SDS011;56996;48.138;11.538;2023-02-01T03:55:22;8.40;;;2.70;;
69730;SDS011;56996;48.138;11.538;2023-02-01T03:57:53;6.90;;;2.40;;
69730;SDS011;56996;48.138;11.538;2023-02-01T04:00:31;7.00;;;2.50;;
69730;SDS011;56996;48.138;11.538;2023-02-01T04:02:58;8.50;;;2.80;;
69730;SDS011;56996;48.138;11.538;2023-02-01T04:05:25;7.20;;;2.80;;
69730;SDS011;56996;48.138;11.538;2023-02-01T04:07:57;6.80;;;2.50;;
69730;SDS011;56996;48.138;11.538;2023-02-01T04:10:25;6.80;;;2.40;;
69730;SDS011;56996;48.138;11.538;2023-02-01T04:12:52;8.60;;;2.80;;
69730;SDS011;56996;48.138;11.538;2023-02-01T04:15:18;6.90;;;2.60;;
69730;SDS011;56996;48.138;11.538;2023-02-01T04:17:45;7.30;;;2.40;;
69730;SDS011;56996;48.138;11.538;2023-02-01T04:20:12;8.90;;;3.00;;
69730;SDS011;56996;48.138;11.538;2023-02-01T04:22:39;8.00;;;2.60;;
69730;SDS011;56996;48.138;11.538;2023-02-01T04:25:06;7.70;;;2.70;;
69730;SDS011;56996;48.138;11.538;2023-02-01T04:27:34;8.10;;;2.50;;
69730;SDS011;56996;48.138;11.538;2023-02-01T04:30:03;7.30;;;2.70;;
69730;SDS011;56996;48.138;11.538;2023-02-01T04:32:30;7.10;;;2.80;;
69730;SDS011;56996;48.138;11.538;2023-02-01T04:34:57;10.00;;;3.00;;
69730;SDS011;56996;48.138;11.538;2023-02-01T04:37:24;8.20;;;2.80;;
69730;SDS011;56996;48.138;11.538;2023-02-01T04:39:50;8.60;;;3.00;;
69730;SDS011;56996;48.138;11.538;2023-02-01T04:42:17;8.00;;;2.60;;
69730;SDS011;56996;48.138;11.538;2023-02-01T04:44:43;8.60;;;2.70;;
69730;SDS011;56996;48.138;11.538;2023-02-01T04:47:10;8.50;;;3.00;;
69730;SDS011;56996;48.138;11.538;2023-02-01T04:49:37;7.30;;;2.90;;
69730;SDS011;56996;48.138;11.538;2023-02-01T04:52:03;8.60;;;3.20;;
69730;SDS011;56996;48.138;11.538;2023-02-01T04:54:30;8.00;;;2.60;;
69730;SDS011;56996;48.138;11.538;2023-02-01T04:56:57;8.00;;;2.60;;
69730;SDS011;56996;48.138;11.538;2023-02-01T04:59:23;8.80;;;3.20;;
69730;SDS011;56996;48.138;11.538;2023-02-01T05:01:50;9.50;;;3.00;;
69730;SDS011;56996;48.138;11.538;2023-02-01T05:04:17;8.30;;;2.70;;
69730;SDS011;56996;48.138;11.538;2023-02-01T05:06:46;7.50;;;3.10;;
69730;SDS011;56996;48.138;11.538;2023-02-01T05:09:13;7.90;;;2.90;;
69730;SDS011;56996;48.138;11.538;2023-02-01T05:11:41;7.50;;;3.00;;
69730;SDS011;56996;48.138;11.538;2023-02-01T05:14:26;10.00;;;3.20;;
69730;SDS011;56996;48.138;11.538;2023-02-01T05:16:53;8.80;;;3.30;;
69730;SDS011;56996;48.138;11.538;2023-02-01T05:19:20;8.40;;;3.00;;
69730;SDS011;56996;48.138;11.538;2023-02-01T05:21:46;9.40;;;3.40;;
69730;SDS011;56996;48.138;11.538;2023-02-01T05:24:13;8.50;;;2.90;;
69730;SDS011;56996;48.138;11.538;2023-02-01T05:26:42;8.60;;;3.00;;
69730;SDS011;56996;48.138;11.538;2023-02-01T05:29:10;8.70;;;3.20;;
69730;SDS011;56996;48.138;11.538;2023-02-01T05:31:37;8.70;;;3.20;;
69730;SDS011;56996;48.138;11.538;2023-02-01T05:34:05;8.70;;;3.10;;
69730;SDS011;56996;48.138;11.538;2023-02-01T05:36:32;8.80;;;3.40;;
69730;SDS011;56996;48.138;11.538;2023-02-01T05:38:59;9.30;;;3.40;;
69730;SDS011;56996;48.138;11.538;2023-02-01T05:41:26;8.20;;;3.40;;
69730;SDS011;56996;48.138;11.538;2023-02-01T05:43:52;9.90;;;3.40;;
69730;SDS011;56996;48.138;11.538;2023-02-01T05:46:19;11.40;;;3.50;;
69730;SDS011;56996;48.138;11.538;2023-02-01T05:48:46;9.60;;;3.30;;
69730;SDS011;56996;48.138;11.538;2023-02-01T05:51:12;8.90;;;3.20;;
69730;SDS011;56996;48.138;11.538;2023-02-01T05:53:39;8.00;;;3.20;;
69730;SDS011;56996;48.138;11.538;2023-02-01T05:56:06;8.20;;;3.00;;
69730;SDS011;56996;48.138;11.538;2023-02-01T05:58:33;8.80;;;3.10;;
69730;SDS011;56996;48.138;11.538;2023-02-01T06:01:01;10.30;;;3.40;;
69730;SDS011;56996;48.138;11.538;2023-02-01T06:03:29;8.80;;;3.20;;
69730;SDS011;56996;48.138;11.538;2023-02-01T06:05:56;8.00;;;3.40;;
69730;SDS011;56996;48.138;11.538;2023-02-01T06:08:23;8.40;;;2.90;;
69730;SDS011;56996;48.138;11.538;2023-02-01T06:10:58;9.10;;;3.10;;
69730;SDS011;56996;48.138;11.538;2023-02-01T06:13:29;9.00;;;3.30;;
69730;SDS011;56996;48.138;11.538;2023-02-01T06:15:59;8.90;;;3.10;;
69730;SDS011;56996;48.138;11.538;2023-02-01T06:18:26;7.20;;;2.90;;
69730;SDS011;56996;48.138;11.538;2023-02-01T06:20:57;8.80;;;3.00;;
69730;SDS011;56996;48.138;11.538;2023-02-01T06:23:27;9.50;;;2.90;;
69730;SDS011;56996;48.138;11.538;2023-02-01T06:26:00;6.90;;;2.70;;
69730;SDS011;56996;48.138;11.538;2023-02-01T06:28:30;9.80;;;3.30;;
69730;SDS011;56996;48.138;11.538;2023-02-01T06:30:57;8.70;;;2.80;;
69730;SDS011;56996;48.138;11.538;2023-02-01T06:33:25;9.90;;;2.70;;
69730;SDS011;56996;48.138;11.538;2023-02-01T06:35:59;8.90;;;3.10;;
69730;SDS011;56996;48.138;11.538;2023-02-01T06:38:27;8.30;;;3.10;;
69730;SDS011;56996;48.138;11.538;2023-02-01T06:40:55;7.90;;;3.10;;
69730;SDS011;56996;48.138;11.538;2023-02-01T06:43:24;8.00;;;2.80;;
69730;SDS011;56996;48.138;11.538;2023-02-01T06:45:52;9.10;;;2.90;;
69730;SDS011;56996;48.138;11.538;2023-02-01T06:48:19;9.90;;;3.20;;
69730;SDS011;56996;48.138;11.538;2023-02-01T06:50:46;9.90;;;4.90;;
69730;SDS011;56996;48.138;11.538;2023-02-01T06:53:12;8.60;;;2.80;;
69730;SDS011;56996;48.138;11.538;2023-02-01T06:55:39;9.20;;;2.90;;
69730;SDS011;56996;48.138;11.538;2023-02-01T06:58:06;10.70;;;2.80;;
69730;SDS011;56996;48.138;11.538;2023-02-01T07:00:32;7.40;;;2.60;;
69730;SDS011;56996;48.138;11.538;2023-02-01T07:02:59;8.50;;;3.10;;
69730;SDS011;56996;48.138;11.538;2023-02-01T07:05:26;8.70;;;3.10;;
69730;SDS011;56996;48.138;11.538;2023-02-01T07:07:53;9.50;;;3.20;;
69730;SDS011;56996;48.138;11.538;2023-02-01T07:10:19;10.70;;;3.10;;
69730;SDS011;56996;48.138;11.538;2023-02-01T07:12:47;8.70;;;2.70;;
69730;SDS011;56996;48.138;11.538;2023-02-01T07:15:13;8.80;;;3.50;;
69730;SDS011;56996;48.138;11.538;2023-02-01T07:17:40;8.80;;;2.70;;
69730;SDS011;56996;48.138;11.538;2023-02-01T07:20:07;7.40;;;2.70;;
69730;SDS011;56996;48.138;11.538;2023-02-01T07:22:34;7.80;;;2.80;;
69730;SDS011;56996;48.138;11.538;2023-02-01T07:25:01;8.30;;;2.80;;
69730;SDS011;56996;48.138;11.538;2023-02-01T07:27:34;8.70;;;3.30;;
69730;SDS011;56996;48.138;11.538;2023-02-01T07:30:02;12.40;;;5.20;;
69730;SDS011;56996;48.138;11.538;2023-02-01T07:32:30;9.00;;;2.70;;
69730;SDS011;56996;48.138;11.538;2023-02-01T07:34:58;9.00;;;3.00;;
69730;SDS011;56996;48.138;11.538;2023-02-01T07:37:24;9.50;;;3.60;;
69730;SDS011;56996;48.138;11.538;2023-02-01T07:39:51;8.50;;;3.40;;
69730;SDS011;56996;48.138;11.538;2023-02-01T07:42:18;7.60;;;2.90;;
69730;SDS011;56996;48.138;11.538;2023-02-01T07:44:45;8.90;;;2.50;;
69730;SDS011;56996;48.138;11.538;2023-02-01T07:47:11;8.70;;;2.60;;
69730;SDS011;56996;48.138;11.538;2023-02-01T07:49:38;6.60;;;2.40;;
69730;SDS011;56996;48.138;11.538;2023-02-01T07:52:05;7.90;;;2.20;;
69730;SDS011;56996;48.138;11.538;2023-02-01T07:54:31;8.40;;;2.30;;
69730;SDS011;56996;48.138;11.538;2023-02-01T07:56:58;6.20;;;1.90;;
69730;SDS011;56996;48.138;11.538;2023-02-01T07:59:25;8.80;;;2.20;;
69730;SDS011;56996;48.138;11.538;2023-02-01T08:01:51;6.60;;;2.40;;
69730;SDS011;56996;48.138;11.538;2023-02-01T08:04:18;7.50;;;2.00;;
69730;SDS011;56996;48.138;11.538;2023-02-01T08:06:45;5.30;;;1.50;;
69730;SDS011;56996;48.138;11.538;2023-02-01T08:09:11;8.50;;;2.60;;
69730;SDS011;56996;48.138;11.538;2023-02-01T08:11:38;5.90;;;1.70;;
69730;SDS011;56996;48.138;11.538;2023-02-01T08:14:05;5.70;;;1.70;;
69730;SDS011;56996;48.138;11.538;2023-02-01T08:16:33;6.40;;;2.10;;
69730;SDS011;56996;48.138;11.538;2023-02-01T08:19:02;6.80;;;1.90;;
69730;SDS011;56996;48.138;11.538;2023-02-01T08:21:29;8.00;;;2.20;;
69730;SDS011;56996;48.138;11.538;2023-02-01T08:24:09;6.90;;;1.70;;
69730;SDS011;56996;48.138;11.538;2023-02-01T08:26:36;7.50;;;1.80;;
69730;SDS011;56996;48.138;11.538;2023-02-01T08:29:05;7.20;;;1.90;;
69730;SDS011;56996;48.138;11.538;2023-02-01T08:31:34;5.70;;;1.60;;
69730;SDS011;56996;48.138;11.538;2023-02-01T08:34:02;6.30;;;1.80;;
69730;SDS011;56996;48.138;11.538;2023-02-01T08:36:32;6.50;;;1.60;;
69730;SDS011;56996;48.138;11.538;2023-02-01T08:38:59;8.20;;;2.40;;
69730;SDS011;56996;48.138;11.538;2023-02-01T08:41:29;7.50;;;2.30;;
69730;SDS011;56996;48.138;11.538;2023-02-01T08:43:57;6.20;;;1.80;;
69730;SDS011;56996;48.138;11.538;2023-02-01T08:46:24;7.60;;;1.90;;
69730;SDS011;56996;48.138;11.538;2023-02-01T08:48:51;7.20;;;1.80;;
69730;SDS011;56996;48.138;11.538;2023-02-01T08:51:21;8.50;;;2.20;;
69730;SDS011;56996;48.138;11.538;2023-02-01T08:53:49;6.10;;;1.90;;
69730;SDS011;56996;48.138;11.538;2023-02-01T08:56:17;9.20;;;3.30;;
69730;SDS011;56996;48.138;11.538;2023-02-01T08:58:44;7.50;;;2.30;;
69730;SDS011;56996;48.138;11.538;2023-02-01T09:01:13;5.40;;;1.70;;
69730;SDS011;56996;48.138;11.538;2023-02-01T09:03:41;6.20;;;1.60;;
69730;SDS011;56996;48.138;11.538;2023-02-01T09:06:11;5.50;;;1.60;;
69730;SDS011;56996;48.138;11.538;2023-02-01T09:08:39;4.80;;;1.40;;
69730;SDS011;56996;48.138;11.538;2023-02-01T09:11:10;7.60;;;2.00;;
69730;SDS011;56996;48.138;11.538;2023-02-01T09:13:39;7.00;;;2.00;;
69730;SDS011;56996;48.138;11.538;2023-02-01T09:16:05;6.60;;;1.80;;
69730;SDS011;56996;48.138;11.538;2023-02-01T09:18:34;7.40;;;2.10;;
69730;SDS011;56996;48.138;11.538;2023-02-01T09:21:07;7.30;;;1.80;;
69730;SDS011;56996;48.138;11.538;2023-02-01T09:23:35;6.50;;;2.00;;
69730;SDS011;56996;48.138;11.538;2023-02-01T09:26:03;7.90;;;2.00;;
69730;SDS011;56996;48.138;11.538;2023-02-01T09:28:31;7.10;;;2.10;;
69730;SDS011;56996;48.138;11.538;2023-02-01T09:30:59;11.10;;;3.20;;
69730;SDS011;56996;48.138;11.538;2023-02-01T09:33:27;7.20;;;2.00;;
69730;SDS011;56996;48.138;11.538;2023-02-01T09:36:00;8.90;;;1.80;;
69730;SDS011;56996;48.138;11.538;2023-02-01T09:38:29;6.50;;;1.90;;
69730;SDS011;56996;48.138;11.538;2023-02-01T09:40:59;7.40;;;1.90;;
69730;SDS011;56996;48.138;11.538;2023-02-01T09:49:08;4.80;;;1.60;;
69730;SDS011;56996;48.138;11.538;2023-02-01T09:51:44;7.10;;;1.80;;
69730;SDS011;56996;48.138;11.538;2023-02-01T09:54:19;6.40;;;1.80;;
69730;SDS011;56996;48.138;11.538;2023-02-01T09:57:00;7.90;;;1.90;;
69730;SDS011;56996;48.138;11.538;2023-02-01T09:59:44;6.70;;;1.90;;
69730;SDS011;56996;48.138;11.538;2023-02-01T10:02:23;6.50;;;2.00;;
69730;SDS011;56996;48.138;11.538;2023-02-01T10:04:55;6.40;;;1.60;;
69730;SDS011;56996;48.138;11.538;2023-02-01T10:07:38;7.30;;;2.30;;
69730;SDS011;56996;48.138;11.538;2023-02-01T10:10:14;7.30;;;1.60;;
69730;SDS011;56996;48.138;11.538;2023-02-01T10:20:57;7.00;;;2.00;;
69730;SDS011;56996;48.138;11.538;2023-02-01T10:26:54;6.00;;;1.60;;
69730;SDS011;56996;48.138;11.538;2023-02-01T10:29:29;7.80;;;2.10;;
69730;SDS011;56996;48.138;11.538;2023-02-01T10:32:00;6.80;;;1.80;;
69730;SDS011;56996;48.138;11.538;2023-02-01T10:34:31;7.60;;;2.20;;
69730;SDS011;56996;48.138;11.538;2023-02-01T10:37:23;6.60;;;1.80;;
69730;SDS011;56996;48.138;11.538;2023-02-01T10:39:59;7.80;;;1.90;;
69730;SDS011;56996;48.138;11.538;2023-02-01T10:42:30;6.40;;;1.70;;
69730;SDS011;56996;48.138;11.538;2023-02-01T10:44:59;6.70;;;1.80;;
69730;SDS011;56996;48.138;11.538;2023-02-01T10:47:28;7.00;;;1.90;;
69730;SDS011;56996;48.138;11.538;2023-02-01T10:50:10;12.80;;;6.90;;
69730;SDS011;56996;48.138;11.538;2023-02-01T10:52:46;4.60;;;1.30;;
69730;SDS011;56996;48.138;11.538;2023-02-01T10:55:30;6.00;;;1.90;;
69730;SDS011;56996;48.138;11.538;2023-02-01T10:58:15;5.90;;;1.80;;
69730;SDS011;56996;48.138;11.538;2023-02-01T11:00:47;5.80;;;1.90;;
69730;SDS011;56996;48.138;11.538;2023-02-01T11:03:36;6.20;;;1.90;;
69730;SDS011;56996;48.138;11.538;2023-02-01T11:06:17;5.80;;;1.70;;
69730;SDS011;56996;48.138;11.538;2023-02-01T11:11:27;8.50;;;2.00;;
69730;SDS011;56996;48.138;11.538;2023-02-01T11:14:18;10.50;;;2.60;;
69730;SDS011;56996;48.138;11.538;2023-02-01T11:19:47;12.30;;;2.40;;
69730;SDS011;56996;48.138;11.538;2023-02-01T11:22:26;6.40;;;2.10;;
69730;SDS011;56996;48.138;11.538;2023-02-01T11:24:56;7.60;;;2.00;;
69730;SDS011;56996;48.138;11.538;2023-02-01T11:27:25;9.90;;;1.90;;
69730;SDS011;56996;48.138;11.538;2023-02-01T11:29:57;7.00;;;2.10;;
69730;SDS011;56996;48.138;11.538;2023-02-01T11:32:27;10.40;;;2.20;;
69730;SDS011;56996;48.138;11.538;2023-02-01T11:35:04;6.20;;;1.90;;
69730;SDS011;56996;48.138;11.538;2023-02-01T11:37:36;5.60;;;2.00;;
69730;SDS011;56996;48.138;11.538;2023-02-01T11:42:57;6.80;;;1.80;;
69730;SDS011;56996;48.138;11.538;2023-02-01T11:47:58;8.50;;;2.10;;
69730;SDS011;56996;48.138;11.538;2023-02-01T11:50:30;9.80;;;2.20;;
69730;SDS011;56996;48.138;11.538;2023-02-01T11:56:12;9.00;;;2.60;;
69730;SDS011;56996;48.138;11.538;2023-02-01T12:07:49;6.30;;;2.20;;
69730;SDS011;56996;48.138;11.538;2023-02-01T12:13:57;9.00;;;2.50;;
69730;SDS011;56996;48.138;11.538;2023-02-01T12:16:46;7.50;;;2.10;;
69730;SDS011;56996;48.138;11.538;2023-02-01T12:19:40;7.90;;;2.50;;
69730;SDS011;56996;48.138;11.538;2023-02-01T12:25:24;9.10;;;2.30;;
69730;SDS011;56996;48.138;11.538;2023-02-01T12:31:19;6.80;;;2.30;;
69730;SDS011;56996;48.138;11.538;2023-02-01T12:40:26;7.80;;;2.00;;
69730;SDS011;56996;48.138;11.538;2023-02-01T12:45:40;10.60;;;2.60;;
69730;SDS011;56996;48.138;11.538;2023-02-01T12:48:39;11.30;;;2.60;;
69730;SDS011;56996;48.138;11.538;2023-02-01T12:51:25;10.70;;;2.50;;
69730;SDS011;56996;48.138;11.538;2023-02-01T12:54:02;6.90;;;2.40;;
69730;SDS011;56996;48.138;11.538;2023-02-01T12:56:43;6.50;;;1.40;;
69730;SDS011;56996;48.138;11.538;2023-02-01T12:59:35;7.30;;;2.10;;
69730;SDS011;56996;48.138;11.538;2023-02-01T13:05:22;7.10;;;2.00;;
69730;SDS011;56996;48.138;11.538;2023-02-01T13:10:45;7.70;;;1.80;;
69730;SDS011;56996;48.138;11.538;2023-02-01T13:15:49;6.60;;;1.70;;
69730;SDS011;56996;48.138;11.538;2023-02-01T13:18:25;4.80;;;1.40;;
69730;SDS011;56996;48.138;11.538;2023-02-01T13:21:02;9.80;;;2.80;;
69730;SDS011;56996;48.138;11.538;2023-02-01T13:23:38;9.00;;;2.30;;
69730;SDS011;56996;48.138;11.538;2023-02-01T13:26:06;8.10;;;1.90;;
69730;SDS011;56996;48.138;11.538;2023-02-01T13:28:53;9.60;;;2.30;;
69730;SDS011;56996;48.138;11.538;2023-02-01T13:35:03;6.60;;;2.00;;
69730;SDS011;56996;48.138;11.538;2023-02-01T13:44:04;5.50;;;1.40;;
69730;SDS011;56996;48.138;11.538;2023-02-01T13:46:42;6.30;;;2.30;;
69730;SDS011;56996;48.138;11.538;2023-02-01T13:49:24;6.40;;;2.10;;
69730;SDS011;56996;48.138;11.538;2023-02-01T13:51:56;6.60;;;2.00;;
69730;SDS011;56996;48.138;11.538;2023-02-01T13:57:05;5.40;;;1.50;;
69730;SDS011;56996;48.138;11.538;2023-02-01T13:59:52;4.20;;;1.00;;
69730;SDS011;56996;48.138;11.538;2023-02-01T14:05:10;10.10;;;3.00;;
69730;SDS011;56996;48.138;11.538;2023-02-01T14:10:51;5.60;;;1.40;;
69730;SDS011;56996;48.138;11.538;2023-02-01T14:13:38;7.80;;;2.10;;
69730;SDS011;56996;48.138;11.538;2023-02-01T14:16:17;11.40;;;2.70;;
69730;SDS011;56996;48.138;11.538;2023-02-01T14:21:30;7.70;;;1.80;;
69730;SDS011;56996;48.138;11.538;2023-02-01T14:24:16;5.40;;;1.50;;
69730;SDS011;56996;48.138;11.538;2023-02-01T14:26:50;8.90;;;2.20;;
69730;SDS011;56996;48.138;11.538;2023-02-01T14:29:35;5.80;;;1.70;;
69730;SDS011;56996;48.138;11.538;2023-02-01T14:42:39;6.90;;;1.80;;
69730;SDS011;56996;48.138;11.538;2023-02-01T14:55:55;6.80;;;1.60;;
69730;SDS011;56996;48.138;11.538;2023-02-01T14:58:55;6.60;;;1.90;;
69730;SDS011;56996;48.138;11.538;2023-02-01T15:01:30;6.50;;;1.70;;
69730;SDS011;56996;48.138;11.538;2023-02-01T15:04:03;6.70;;;1.50;;
69730;SDS011;56996;48.138;11.538;2023-02-01T15:06:52;7.40;;;1.50;;
69730;SDS011;56996;48.138;11.538;2023-02-01T15:09:38;4.90;;;1.10;;
69730;SDS011;56996;48.138;11.538;2023-02-01T15:15:02;7.20;;;2.00;;
69730;SDS011;56996;48.138;11.538;2023-02-01T15:17:38;7.60;;;2.00;;
69730;SDS011;56996;48.138;11.538;2023-02-01T15:20:25;7.60;;;1.90;;
69730;SDS011;56996;48.138;11.538;2023-02-01T15:22:59;6.60;;;1.70;;
69730;SDS011;56996;48.138;11.538;2023-02-01T15:25:30;9.40;;;1.80;;
69730;SDS011;56996;48.138;11.538;2023-02-01T15:28:00;7.80;;;1.90;;
69730;SDS011;56996;48.138;11.538;2023-02-01T15:30:29;7.10;;;1.60;;
69730;SDS011;56996;48.138;11.538;2023-02-01T15:43:37;6.80;;;1.60;;
69730;SDS011;56996;48.138;11.538;2023-02-01T15:46:21;6.10;;;1.60;;
69730;SDS011;56996;48.138;11.538;2023-02-01T15:48:52;6.90;;;1.50;;
69730;SDS011;56996;48.138;11.538;2023-02-01T15:51:23;5.60;;;1.60;;
69730;SDS011;56996;48.138;11.538;2023-02-01T15:56:34;8.20;;;1.80;;
69730;SDS011;56996;48.138;11.538;2023-02-01T15:59:13;7.00;;;1.70;;
69730;SDS011;56996;48.138;11.538;2023-02-01T16:01:42;7.00;;;1.80;;
69730;SDS011;56996;48.138;11.538;2023-02-01T16:04:24;8.10;;;1.80;;
69730;SDS011;56996;48.138;11.538;2023-02-01T16:06:52;6.50;;;1.70;;
69730;SDS011;56996;48.138;11.538;2023-02-01T16:09:34;9.60;;;1.80;;
69730;SDS011;56996;48.138;11.538;2023-02-01T16:15:12;6.50;;;1.40;;
69730;SDS011;56996;48.138;11.538;2023-02-01T16:17:39;6.40;;;1.20;;
69730;SDS011;56996;48.138;11.538;2023-02-01T16:20:06;8.40;;;1.70;;
69730;SDS011;56996;48.138;11.538;2023-02-01T16:22:33;9.10;;;1.40;;
69730;SDS011;56996;48.138;11.538;2023-02-01T16:25:00;5.10;;;1.30;;
69730;SDS011;56996;48.138;11.538;2023-02-01T16:27:28;6.90;;;1.60;;
69730;SDS011;56996;48.138;11.538;2023-02-01T16:29:54;9.50;;;1.40;;
69730;SDS011;56996;48.138;11.538;2023-02-01T16:32:23;5.60;;;1.00;;
69730;SDS011;56996;48.138;11.538;2023-02-01T16:34:50;7.30;;;1.60;;
69730;SDS011;56996;48.138;11.538;2023-02-01T16:37:21;7.50;;;1.60;;
69730;SDS011;56996;48.138;11.538;2023-02-01T16:39:49;6.90;;;1.60;;
69730;SDS011;56996;48.138;11.538;2023-02-01T16:42:16;7.60;;;1.70;;
69730;SDS011;56996;48.138;11.538;2023-02-01T16:44:43;7.60;;;1.60;;
69730;SDS011;56996;48.138;11.538;2023-02-01T16:47:21;8.90;;;1.70;;
69730;SDS011;56996;48.138;11.538;2023-02-01T16:49:50;8.70;;;1.40;;
69730;SDS011;56996;48.138;11.538;2023-02-01T16:52:21;4.50;;;1.20;;
69730;SDS011;56996;48.138;11.538;2023-02-01T16:54:50;9.40;;;1.90;;
69730;SDS011;56996;48.138;11.538;2023-02-01T16:57:19;8.10;;;2.00;;
69730;SDS011;56996;48.138;11.538;2023-02-01T16:59:49;7.40;;;1.70;;
69730;SDS011;56996;48.138;11.538;2023-02-01T17:02:18;4.80;;;1.30;;
69730;SDS011;56996;48.138;11.538;2023-02-01T17:04:46;6.80;;;1.50;;
69730;SDS011;56996;48.138;11.538;2023-02-01T17:07:16;7.80;;;1.70;;
69730;SDS011;56996;48.138;11.538;2023-02-01T17:09:46;8.00;;;1.90;;
69730;SDS011;56996;48.138;11.538;2023-02-01T17:12:21;7.50;;;1.40;;
69730;SDS011;56996;48.138;11.538;2023-02-01T17:14:53;8.40;;;1.70;;
69730;SDS011;56996;48.138;11.538;2023-02-01T17:17:20;6.40;;;1.60;;
69730;SDS011;56996;48.138;11.538;2023-02-01T17:20:03;8.20;;;1.70;;
69730;SDS011;56996;48.138;11.538;2023-02-01T17:22:30;4.80;;;1.20;;
69730;SDS011;56996;48.138;11.538;2023-02-01T17:24:57;6.30;;;1.10;;
69730;SDS011;56996;48.138;11.538;2023-02-01T17:27:23;10.40;;;1.60;;
69730;SDS011;56996;48.138;11.538;2023-02-01T17:29:50;6.10;;;1.30;;
69730;SDS011;56996;48.138;11.538;2023-02-01T17:32:22;4.30;;;0.80;;
69730;SDS011;56996;48.138;11.538;2023-02-01T17:34:50;9.30;;;1.90;;